createdAt,value
2017-12-01T00:00:50.077Z,-2.31
2017-12-01T00:03:22.215Z,-2.31
2017-12-01T00:05:54.576Z,-2.35
2017-12-01T00:08:26.484Z,-2.38
2017-12-01T00:10:58.253Z,-2.46
2017-12-01T00:13:30.289Z,-2.53
2017-12-01T00:16:02.071Z,-2.57
2017-12-01T00:18:35.278Z,-2.57
2017-12-01T00:21:06.388Z,-2.60
2017-12-01T00:23:37.727Z,-2.53
2017-12-01T00:26:08.841Z,-2.45
2017-12-01T00:28:41.523Z,-2.36
2017-12-01T00:31:12.061Z,-2.31
2017-12-01T00:33:42.833Z,-2.21
2017-12-01T00:36:10.565Z,-1.97
2017-12-01T00:38:39.557Z,-1.97
2017-12-01T00:41:07.044Z,-1.96
2017-12-01T00:43:34.508Z,-1.93
2017-12-01T00:46:01.972Z,-1.87
2017-12-01T00:48:29.457Z,-1.71
2017-12-01T00:50:57.022Z,-1.68
2017-12-01T00:53:24.501Z,-1.70
2017-12-01T00:55:51.993Z,-1.70
2017-12-01T00:58:19.466Z,-1.66
2017-12-01T01:00:46.933Z,-1.73
2017-12-01T01:03:14.413Z,-1.68
2017-12-01T01:05:41.888Z,-1.69
2017-12-01T01:08:09.381Z,-1.73
2017-12-01T01:10:36.880Z,-1.51
2017-12-01T01:13:04.349Z,-1.59
2017-12-01T01:15:31.837Z,-1.65
2017-12-01T01:17:59.305Z,-1.49
2017-12-01T01:20:26.778Z,-1.54
2017-12-01T01:22:54.264Z,-1.51
2017-12-01T01:25:21.728Z,-1.57
2017-12-01T01:27:49.220Z,-1.52
2017-12-01T01:30:16.685Z,-1.48
2017-12-01T01:32:44.161Z,-1.41
2017-12-01T01:35:11.645Z,-1.40
2017-12-01T01:37:39.108Z,-1.39
2017-12-01T01:40:06.599Z,-1.40
2017-12-01T01:42:34.069Z,-1.47
2017-12-01T01:45:01.536Z,-1.31
2017-12-01T01:47:29.020Z,-1.41
2017-12-01T01:49:56.488Z,-1.17
2017-12-01T01:52:24.011Z,-1.44
2017-12-01T01:54:51.481Z,-1.48
2017-12-01T01:57:18.972Z,-1.40
2017-12-01T01:59:46.444Z,-1.32
2017-12-01T02:02:14.352Z,-1.46
2017-12-01T02:04:41.828Z,-1.46
2017-12-01T02:07:09.328Z,-1.46
2017-12-01T02:09:36.929Z,-1.42
2017-12-01T02:12:04.413Z,-1.58
2017-12-01T02:14:31.889Z,-1.42
2017-12-01T02:16:59.393Z,-1.18
2017-12-01T02:19:26.869Z,-1.47
2017-12-01T02:21:54.356Z,-1.86
2017-12-01T02:24:21.821Z,-1.98
2017-12-01T02:26:49.305Z,-2.13
2017-12-01T02:29:16.780Z,-2.21
2017-12-01T02:31:44.269Z,-2.30
2017-12-01T02:34:11.745Z,-2.05
2017-12-01T02:36:39.264Z,-2.21
2017-12-01T02:39:06.741Z,-2.57
2017-12-01T02:41:34.226Z,-2.56
2017-12-01T02:44:01.693Z,-2.56
2017-12-01T02:46:29.176Z,-2.61
2017-12-01T02:48:56.640Z,-2.71
2017-12-01T02:51:24.125Z,-2.81
2017-12-01T02:53:51.629Z,-2.88
2017-12-01T02:56:19.117Z,-2.97
2017-12-01T02:58:46.590Z,-2.88
2017-12-01T03:01:14.085Z,-3.00
2017-12-01T03:03:41.548Z,-3.05
2017-12-01T03:06:09.039Z,-3.16
2017-12-01T03:08:36.513Z,-3.26
2017-12-01T03:11:04.115Z,-3.36
2017-12-01T03:13:31.638Z,-3.40
2017-12-01T03:15:59.093Z,-3.45
2017-12-01T03:18:26.565Z,-3.44
2017-12-01T03:20:54.074Z,-3.47
2017-12-01T03:23:21.571Z,-3.54
2017-12-01T03:25:49.049Z,-3.54
2017-12-01T03:28:16.532Z,-3.56
2017-12-01T03:30:44.002Z,-3.52
2017-12-01T03:33:11.493Z,-3.53
2017-12-01T03:35:38.960Z,-3.48
2017-12-01T03:38:06.445Z,-3.55
2017-12-01T03:40:34.049Z,-3.56
2017-12-01T03:43:01.631Z,-3.53
2017-12-01T03:45:29.153Z,-3.55
2017-12-01T03:47:56.645Z,-3.57
2017-12-01T03:50:24.113Z,-3.52
2017-12-01T03:52:51.593Z,-3.55
2017-12-01T03:55:19.057Z,-3.64
2017-12-01T03:57:46.545Z,-3.63
2017-12-01T04:00:14.017Z,-3.70
2017-12-01T04:02:41.645Z,-3.74
2017-12-01T04:05:09.109Z,-3.48
2017-12-01T04:07:36.604Z,-3.17
2017-12-01T04:10:04.073Z,-3.67
2017-12-01T04:12:31.562Z,-3.76
2017-12-01T04:14:59.057Z,-3.48
2017-12-01T04:17:26.545Z,-3.77
2017-12-01T04:19:54.023Z,-4.14
2017-12-01T04:22:21.525Z,-4.34
2017-12-01T04:24:49.008Z,-4.41
2017-12-01T04:27:16.496Z,-4.36
2017-12-01T04:29:44.032Z,-4.30
2017-12-01T04:32:11.786Z,-4.23
2017-12-01T04:34:39.253Z,-4.16
2017-12-01T04:37:06.741Z,-4.08
2017-12-01T04:39:34.209Z,-4.07
2017-12-01T04:42:01.704Z,-4.04
2017-12-01T04:44:29.173Z,-3.98
2017-12-01T04:46:56.682Z,-4.07
2017-12-01T04:49:24.186Z,-4.17
2017-12-01T04:51:51.719Z,-4.16
2017-12-01T04:54:19.222Z,-4.13
2017-12-01T04:56:46.694Z,-4.14
2017-12-01T04:59:14.188Z,-4.18
2017-12-01T05:01:41.670Z,-4.19
2017-12-01T05:04:09.156Z,-4.24
2017-12-01T05:06:36.625Z,-4.34
2017-12-01T05:09:04.121Z,-4.40
2017-12-01T05:11:31.621Z,-4.39
2017-12-01T05:13:59.113Z,-4.38
2017-12-01T05:16:26.684Z,-4.27
2017-12-01T05:18:54.168Z,-4.25
2017-12-01T05:21:21.640Z,-4.15
2017-12-01T05:23:49.128Z,-4.25
2017-12-01T05:26:16.593Z,-4.46
2017-12-01T05:28:44.072Z,-4.64
2017-12-01T05:31:12.561Z,-4.73
2017-12-01T05:33:40.073Z,-4.75
2017-12-01T05:36:07.545Z,-4.73
2017-12-01T05:38:35.036Z,-4.77
2017-12-01T05:41:02.531Z,-4.72
2017-12-01T05:43:30.072Z,-4.69
2017-12-01T05:45:57.840Z,-4.61
2017-12-01T05:48:29.726Z,-4.69
2017-12-01T05:50:57.640Z,-4.77
2017-12-01T05:53:28.648Z,-4.92
2017-12-01T05:55:56.463Z,-5.05
2017-12-01T05:58:23.932Z,-5.10
2017-12-01T06:00:51.475Z,-5.04
2017-12-01T06:03:21.870Z,-4.93
2017-12-01T06:05:49.650Z,-4.93
2017-12-01T06:08:17.120Z,-4.96
2017-12-01T06:10:44.604Z,-5.02
2017-12-01T06:13:14.473Z,-5.06
2017-12-01T06:15:41.973Z,-5.10
2017-12-01T06:18:09.458Z,-5.15
2017-12-01T06:20:41.556Z,-5.20
2017-12-01T06:23:10.416Z,-5.29
2017-12-01T06:25:41.563Z,-5.37
2017-12-01T06:28:09.409Z,-5.44
2017-12-01T06:30:36.892Z,-5.45
2017-12-01T06:33:04.381Z,-5.47
2017-12-01T06:35:31.885Z,-5.43
2017-12-01T06:37:59.421Z,-5.41
2017-12-01T06:40:26.937Z,-5.33
2017-12-01T06:42:54.404Z,-5.35
2017-12-01T06:45:21.893Z,-5.29
2017-12-01T06:47:49.357Z,-5.21
2017-12-01T06:50:17.137Z,-5.11
2017-12-01T06:52:44.600Z,-5.08
2017-12-01T06:55:12.090Z,-5.16
2017-12-01T06:57:39.681Z,-5.20
2017-12-01T07:00:07.225Z,-5.04
2017-12-01T07:02:34.713Z,-4.84
2017-12-01T07:05:02.277Z,-4.84
2017-12-01T07:07:29.777Z,-4.74
2017-12-01T07:09:57.261Z,-4.61
2017-12-01T07:12:24.760Z,-4.43
2017-12-01T07:14:52.244Z,-4.40
2017-12-01T07:17:19.798Z,-4.44
2017-12-01T07:19:48.281Z,-4.44
2017-12-01T07:22:15.744Z,-4.29
2017-12-01T07:24:43.229Z,-4.12
2017-12-01T07:27:10.701Z,-3.64
2017-12-01T07:29:38.168Z,-2.48
2017-12-01T07:32:05.653Z,-2.50
2017-12-01T07:34:33.120Z,-2.32
2017-12-01T07:37:00.604Z,-1.37
2017-12-01T07:39:28.560Z,-0.84
2017-12-01T07:41:56.156Z,-0.52
2017-12-01T07:44:33.536Z,-1.06
2017-12-01T07:47:01.022Z,-1.95
2017-12-01T07:49:28.545Z,-2.62
2017-12-01T07:51:56.025Z,-2.61
2017-12-01T07:54:23.497Z,-2.27
2017-12-01T07:56:51.524Z,-1.57
2017-12-01T07:59:19.014Z,-1.14
2017-12-01T08:01:46.500Z,-0.58
2017-12-01T08:04:13.998Z,-0.49
2017-12-01T08:06:41.492Z,-0.41
2017-12-01T08:09:08.961Z,1.00
2017-12-01T08:11:36.556Z,2.21
2017-12-01T08:14:04.021Z,2.62
2017-12-01T08:16:43.597Z,1.62
2017-12-01T08:19:11.085Z,1.18
2017-12-01T08:21:50.858Z,1.18
2017-12-01T08:24:30.235Z,1.10
2017-12-01T08:26:57.753Z,1.20
2017-12-01T08:29:25.221Z,1.81
2017-12-01T08:31:52.710Z,1.53
2017-12-01T08:34:20.231Z,1.80
2017-12-01T08:36:47.749Z,2.23
2017-12-01T08:39:15.229Z,2.22
2017-12-01T08:41:42.765Z,1.88
2017-12-01T08:44:10.245Z,1.16
2017-12-01T08:46:37.820Z,0.77
2017-12-01T08:49:05.281Z,0.50
2017-12-01T08:51:32.761Z,0.47
2017-12-01T08:54:00.225Z,0.68
2017-12-01T08:56:27.754Z,0.66
2017-12-01T08:58:55.225Z,0.38
2017-12-01T09:01:22.713Z,0.67
2017-12-01T09:03:50.181Z,0.81
2017-12-01T09:06:17.679Z,0.76
2017-12-01T09:08:45.148Z,0.61
2017-12-01T09:11:12.629Z,0.46
2017-12-01T09:13:40.093Z,0.63
2017-12-01T09:16:07.577Z,0.68
2017-12-01T09:18:35.070Z,0.22
2017-12-01T09:21:02.549Z,0.37
2017-12-01T09:23:30.006Z,1.02
2017-12-01T09:25:57.487Z,1.24
2017-12-01T09:28:24.944Z,0.96
2017-12-01T09:30:52.472Z,1.36
2017-12-01T09:33:19.949Z,1.89
2017-12-01T09:35:47.413Z,1.33
2017-12-01T09:38:15.105Z,1.47
2017-12-01T09:40:42.566Z,1.35
2017-12-01T09:43:10.089Z,1.18
2017-12-01T09:45:37.549Z,1.62
2017-12-01T09:48:05.029Z,1.77
2017-12-01T09:50:32.528Z,1.68
2017-12-01T09:53:00.009Z,1.17
2017-12-01T09:55:27.481Z,1.27
2017-12-01T09:57:54.985Z,0.87
2017-12-01T10:00:22.453Z,0.59
2017-12-01T10:02:49.932Z,0.52
2017-12-01T10:05:17.399Z,0.58
2017-12-01T10:07:45.553Z,0.47
2017-12-01T10:10:13.022Z,0.74
2017-12-01T10:12:40.512Z,1.42
2017-12-01T10:15:07.969Z,1.64
2017-12-01T10:17:35.444Z,1.29
2017-12-01T10:20:02.910Z,1.46
2017-12-01T10:22:30.442Z,1.82
2017-12-01T10:24:57.913Z,1.64
2017-12-01T10:27:25.397Z,1.68
2017-12-01T10:29:52.857Z,1.75
2017-12-01T10:32:20.340Z,1.18
2017-12-01T10:34:47.801Z,1.34
2017-12-01T10:37:15.332Z,1.08
2017-12-01T10:39:42.793Z,1.46
2017-12-01T10:42:10.273Z,1.63
2017-12-01T10:44:37.724Z,1.63
2017-12-01T10:47:05.209Z,1.93
2017-12-01T10:49:32.664Z,2.07
2017-12-01T10:52:00.141Z,2.19
2017-12-01T10:54:27.604Z,2.36
2017-12-01T10:56:55.085Z,2.15
2017-12-01T10:59:22.624Z,2.48
2017-12-01T11:01:50.098Z,2.78
2017-12-01T11:04:17.552Z,2.47
2017-12-01T11:06:45.007Z,2.44
2017-12-01T11:09:12.481Z,2.52
2017-12-01T11:11:39.947Z,2.57
2017-12-01T11:14:07.421Z,2.14
2017-12-01T11:16:34.876Z,2.02
2017-12-01T11:19:02.351Z,1.89
2017-12-01T11:21:29.801Z,2.08
2017-12-01T11:23:57.282Z,2.13
2017-12-01T11:26:24.738Z,2.26
2017-12-01T11:28:52.213Z,2.01
2017-12-01T11:31:19.678Z,2.05
2017-12-01T11:33:47.150Z,2.04
2017-12-01T11:36:14.613Z,2.38
2017-12-01T11:38:42.093Z,2.42
2017-12-01T11:41:09.549Z,2.53
2017-12-01T11:43:37.029Z,2.57
2017-12-01T11:46:04.490Z,2.64
2017-12-01T11:48:31.965Z,2.62
2017-12-01T11:50:59.424Z,2.96
2017-12-01T11:53:26.893Z,2.83
2017-12-01T11:55:54.360Z,2.94
2017-12-01T11:58:21.829Z,3.11
2017-12-01T12:01:00.264Z,3.11
2017-12-01T12:03:27.741Z,2.98
2017-12-01T12:05:55.196Z,2.66
2017-12-01T12:08:23.388Z,3.01
2017-12-01T12:10:50.849Z,3.09
2017-12-01T12:13:18.362Z,3.30
2017-12-01T12:15:45.817Z,3.46
2017-12-01T12:18:13.292Z,3.16
2017-12-01T12:20:40.753Z,2.94
2017-12-01T12:23:08.240Z,2.88
2017-12-01T12:25:35.696Z,2.52
2017-12-01T12:28:03.177Z,2.51
2017-12-01T12:30:30.644Z,2.50
2017-12-01T12:32:58.126Z,2.28
2017-12-01T12:35:25.721Z,2.52
2017-12-01T12:37:53.193Z,2.44
2017-12-01T12:40:20.661Z,2.87
2017-12-01T12:42:48.125Z,3.01
2017-12-01T12:45:15.616Z,3.21
2017-12-01T12:47:43.102Z,3.39
2017-12-01T12:50:10.585Z,3.28
2017-12-01T12:52:38.049Z,3.27
2017-12-01T12:55:05.529Z,3.05
2017-12-01T12:57:33.005Z,2.84
2017-12-01T13:00:00.488Z,2.91
2017-12-01T13:02:28.000Z,2.94
2017-12-01T13:04:55.489Z,2.80
2017-12-01T13:07:22.964Z,2.80
2017-12-01T13:09:50.445Z,2.67
2017-12-01T13:12:17.913Z,2.47
2017-12-01T13:14:45.393Z,2.61
2017-12-01T13:17:12.964Z,2.52
2017-12-01T13:19:40.565Z,2.59
2017-12-01T13:22:08.031Z,2.40
2017-12-01T13:24:35.509Z,2.25
2017-12-01T13:27:02.977Z,2.30
2017-12-01T13:29:30.461Z,1.78
2017-12-01T13:31:57.929Z,1.75
2017-12-01T13:34:25.421Z,1.67
2017-12-01T13:36:52.888Z,1.61
2017-12-01T13:39:20.370Z,1.98
2017-12-01T13:41:47.840Z,1.76
2017-12-01T13:44:15.318Z,2.04
2017-12-01T13:46:42.777Z,1.75
2017-12-01T13:49:10.260Z,1.80
2017-12-01T13:51:37.743Z,1.83
2017-12-01T13:54:05.225Z,1.64
2017-12-01T13:56:32.712Z,1.45
2017-12-01T13:59:00.201Z,1.13
2017-12-01T14:01:27.668Z,1.27
2017-12-01T14:03:55.149Z,1.04
2017-12-01T14:06:22.622Z,1.07
2017-12-01T14:08:50.109Z,1.23
2017-12-01T14:11:17.629Z,1.52
2017-12-01T14:13:45.094Z,1.70
2017-12-01T14:16:12.655Z,1.56
2017-12-01T14:18:40.122Z,1.62
2017-12-01T14:21:07.637Z,1.48
2017-12-01T14:23:35.104Z,1.40
2017-12-01T14:26:02.588Z,1.65
2017-12-01T14:28:30.053Z,1.49
2017-12-01T14:30:57.532Z,1.09
2017-12-01T14:33:25.004Z,1.14
2017-12-01T14:35:52.485Z,1.46
2017-12-01T14:38:19.983Z,1.62
2017-12-01T14:40:47.460Z,1.55
2017-12-01T14:43:14.929Z,1.35
2017-12-01T14:45:42.514Z,1.44
2017-12-01T14:48:10.025Z,1.42
2017-12-01T14:50:37.509Z,1.50
2017-12-01T14:53:05.006Z,1.53
2017-12-01T14:55:32.487Z,1.39
2017-12-01T14:57:59.952Z,1.42
2017-12-01T15:00:27.435Z,1.19
2017-12-01T15:02:54.896Z,1.13
2017-12-01T15:05:22.380Z,0.98
2017-12-01T15:07:49.849Z,0.88
2017-12-01T15:10:17.341Z,0.87
2017-12-01T15:12:44.804Z,0.71
2017-12-01T15:15:12.292Z,0.72
2017-12-01T15:17:39.757Z,0.78
2017-12-01T15:20:07.235Z,0.87
2017-12-01T15:22:34.714Z,0.72
2017-12-01T15:25:02.186Z,0.56
2017-12-01T15:27:29.670Z,0.51
2017-12-01T15:29:57.190Z,0.69
2017-12-01T15:32:25.493Z,0.52
2017-12-01T15:34:52.957Z,0.36
2017-12-01T15:37:20.436Z,0.27
2017-12-01T15:39:48.389Z,0.11
2017-12-01T15:42:15.868Z,0.12
2017-12-01T15:44:43.400Z,0.08
2017-12-01T15:47:10.838Z,0.05
2017-12-01T15:49:38.300Z,0.02
2017-12-01T15:52:05.785Z,0.03
2017-12-01T15:54:33.259Z,-0.08
2017-12-01T15:57:00.802Z,-0.12
2017-12-01T15:59:28.305Z,-0.21
2017-12-01T16:01:55.874Z,-0.22
2017-12-01T16:04:23.342Z,-0.32
2017-12-01T16:06:50.827Z,-0.38
2017-12-01T16:09:18.318Z,-0.39
2017-12-01T16:11:45.801Z,-0.52
2017-12-01T16:14:13.365Z,-0.58
2017-12-01T16:16:40.877Z,-0.61
2017-12-01T16:19:08.353Z,-0.66
2017-12-01T16:21:35.851Z,-0.70
2017-12-01T16:24:03.320Z,-0.77
2017-12-01T16:26:30.808Z,-0.80
2017-12-01T16:28:58.282Z,-0.80
2017-12-01T16:31:25.765Z,-0.75
2017-12-01T16:33:53.245Z,-0.63
2017-12-01T16:36:20.841Z,-0.57
2017-12-01T16:38:48.324Z,-0.56
2017-12-01T16:41:16.456Z,-0.65
2017-12-01T16:43:43.921Z,-0.64
2017-12-01T16:46:11.434Z,-0.70
2017-12-01T16:48:38.900Z,-0.78
2017-12-01T16:51:06.392Z,-0.76
2017-12-01T16:53:33.862Z,-0.76
2017-12-01T16:56:01.425Z,-0.74
2017-12-01T16:58:28.901Z,-0.70
2017-12-01T17:00:56.393Z,-0.70
2017-12-01T17:03:23.861Z,-0.66
2017-12-01T17:05:51.356Z,-0.64
2017-12-01T17:08:18.825Z,-0.60
2017-12-01T17:10:46.317Z,-0.52
2017-12-01T17:13:14.702Z,-0.53
2017-12-01T17:15:42.183Z,-0.54
2017-12-01T17:18:09.669Z,-0.54
2017-12-01T17:20:37.142Z,-0.52
2017-12-01T17:23:04.629Z,-0.55
2017-12-01T17:25:32.152Z,-0.59
2017-12-01T17:27:59.641Z,-0.64
2017-12-01T17:30:27.113Z,-0.79
2017-12-01T17:32:54.679Z,-0.89
2017-12-01T17:35:22.144Z,-1.02
2017-12-01T17:37:49.629Z,-1.12
2017-12-01T17:40:17.093Z,-1.11
2017-12-01T17:42:44.581Z,-1.16
2017-12-01T17:45:12.056Z,-1.20
2017-12-01T17:47:39.540Z,-1.30
2017-12-01T17:50:07.004Z,-1.33
2017-12-01T17:52:34.489Z,-1.52
2017-12-01T17:55:01.965Z,-1.50
2017-12-01T17:57:29.549Z,-1.67
2017-12-01T17:59:57.036Z,-1.77
2017-12-01T18:02:24.548Z,-1.51
2017-12-01T18:04:52.242Z,-1.39
2017-12-01T18:07:19.728Z,-1.27
2017-12-01T18:09:47.201Z,-1.22
2017-12-01T18:12:14.692Z,-1.14
2017-12-01T18:14:42.169Z,-1.11
2017-12-01T18:17:09.657Z,-1.09
2017-12-01T18:19:37.139Z,-0.98
2017-12-01T18:22:04.628Z,-0.98
2017-12-01T18:24:32.097Z,-0.91
2017-12-01T18:26:59.599Z,-0.80
2017-12-01T18:29:27.069Z,-0.72
2017-12-01T18:31:54.559Z,-0.75
2017-12-01T18:34:22.039Z,-0.71
2017-12-01T18:36:49.549Z,-0.60
2017-12-01T18:39:17.442Z,-0.69
2017-12-01T18:41:44.921Z,-0.61
2017-12-01T18:44:12.404Z,-0.62
2017-12-01T18:46:39.877Z,-0.58
2017-12-01T18:49:07.458Z,-0.54
2017-12-01T18:51:34.965Z,-0.54
2017-12-01T18:54:02.448Z,-0.46
2017-12-01T18:56:29.919Z,-0.37
2017-12-01T18:58:57.404Z,-0.38
2017-12-01T19:01:24.876Z,-0.38
2017-12-01T19:03:52.361Z,-0.42
2017-12-01T19:06:19.827Z,-0.47
2017-12-01T19:08:47.321Z,-0.49
2017-12-01T19:11:14.789Z,-0.41
2017-12-01T19:13:42.272Z,-0.29
2017-12-01T19:16:10.146Z,-0.36
2017-12-01T19:18:37.676Z,-0.28
2017-12-01T19:21:05.149Z,-0.28
2017-12-01T19:23:32.680Z,-0.31
2017-12-01T19:26:00.156Z,-0.25
2017-12-01T19:28:27.674Z,-0.39
2017-12-01T19:30:55.318Z,-0.28
2017-12-01T19:33:22.833Z,-0.33
2017-12-01T19:35:50.310Z,-0.41
2017-12-01T19:38:17.801Z,-0.44
2017-12-01T19:40:45.276Z,-0.57
2017-12-01T19:43:12.761Z,-0.56
2017-12-01T19:45:40.284Z,-0.65
2017-12-01T19:48:07.781Z,-0.76
2017-12-01T19:50:35.281Z,-0.81
2017-12-01T19:53:02.776Z,-0.80
2017-12-01T19:55:30.251Z,-0.75
2017-12-01T19:57:57.732Z,-0.81
2017-12-01T20:00:25.201Z,-0.83
2017-12-01T20:02:52.690Z,-0.95
2017-12-01T20:05:20.174Z,-0.96
2017-12-01T20:07:48.540Z,-0.91
2017-12-01T20:10:16.014Z,-0.89
2017-12-01T20:12:43.484Z,-0.84
2017-12-01T20:15:11.321Z,-0.89
2017-12-01T20:17:38.793Z,-1.04
2017-12-01T20:20:06.277Z,-0.97
2017-12-01T20:22:33.745Z,-1.09
2017-12-01T20:25:01.228Z,-1.20
2017-12-01T20:27:28.701Z,-1.23
2017-12-01T20:29:56.184Z,-1.35
2017-12-01T20:32:24.009Z,-1.43
2017-12-01T20:34:51.496Z,-1.55
2017-12-01T20:37:18.979Z,-1.58
2017-12-01T20:39:46.469Z,-1.74
2017-12-01T20:42:13.945Z,-1.72
2017-12-01T20:44:41.927Z,-1.70
2017-12-01T20:47:09.405Z,-1.91
2017-12-01T20:49:36.913Z,-1.97
2017-12-01T20:52:04.377Z,-2.22
2017-12-01T20:54:31.886Z,-2.09
2017-12-01T20:56:59.352Z,-2.35
2017-12-01T20:59:26.841Z,-2.57
2017-12-01T21:01:54.314Z,-2.64
2017-12-01T21:04:21.822Z,-2.45
2017-12-01T21:06:49.333Z,-2.61
2017-12-01T21:09:16.820Z,-2.48
2017-12-01T21:11:44.293Z,-2.40
2017-12-01T21:14:11.787Z,-2.25
2017-12-01T21:16:39.262Z,-2.21
2017-12-01T21:19:06.752Z,-2.01
2017-12-01T21:21:34.274Z,-1.70
2017-12-01T21:24:02.117Z,-1.57
2017-12-01T21:26:30.381Z,-1.60
2017-12-01T21:28:57.871Z,-1.52
2017-12-01T21:31:26.153Z,-1.45
2017-12-01T21:33:53.641Z,-1.24
2017-12-01T21:36:21.105Z,-1.20
2017-12-01T21:38:48.588Z,-1.22
2017-12-01T21:41:16.697Z,-1.07
2017-12-01T21:43:44.185Z,-1.04
2017-12-01T21:46:11.668Z,-1.21
2017-12-01T21:48:39.480Z,-1.17
2017-12-01T21:51:06.964Z,-1.14
2017-12-01T21:53:34.461Z,-0.97
2017-12-01T21:56:02.004Z,-1.13
2017-12-01T21:58:29.476Z,-1.16
2017-12-01T22:00:56.965Z,-1.56
2017-12-01T22:03:24.476Z,-1.67
2017-12-01T22:05:51.965Z,-1.54
2017-12-01T22:08:19.442Z,-1.60
2017-12-01T22:10:46.928Z,-1.64
2017-12-01T22:13:14.396Z,-1.54
2017-12-01T22:15:41.885Z,-1.55
2017-12-01T22:18:09.361Z,-1.45
2017-12-01T22:20:36.845Z,-1.50
2017-12-01T22:23:04.335Z,-1.47
2017-12-01T22:25:31.843Z,-1.55
2017-12-01T22:27:59.317Z,-1.56
2017-12-01T22:30:26.809Z,-1.53
2017-12-01T22:32:54.284Z,-1.50
2017-12-01T22:35:22.456Z,-1.45
2017-12-01T22:37:49.932Z,-1.48
2017-12-01T22:40:17.420Z,-1.67
2017-12-01T22:42:45.020Z,-1.59
2017-12-01T22:45:12.662Z,-1.68
2017-12-01T22:47:40.242Z,-1.73
2017-12-01T22:50:07.729Z,-1.70
2017-12-01T22:52:35.201Z,-1.77
2017-12-01T22:55:02.688Z,-1.88
2017-12-01T22:57:33.893Z,-1.93
2017-12-01T23:00:02.261Z,-1.98
2017-12-01T23:02:29.736Z,-1.96
2017-12-01T23:04:57.234Z,-1.85
2017-12-01T23:07:24.710Z,-1.79
2017-12-01T23:09:52.207Z,-1.80
2017-12-01T23:12:19.681Z,-1.58
2017-12-01T23:14:47.186Z,-1.64
2017-12-01T23:17:14.756Z,-1.49
2017-12-01T23:19:42.304Z,-1.49
2017-12-01T23:22:09.793Z,-1.41
2017-12-01T23:24:37.360Z,-1.17
2017-12-01T23:27:04.848Z,-1.12
2017-12-01T23:29:32.316Z,-1.12
2017-12-01T23:31:59.808Z,-1.18
2017-12-01T23:34:27.277Z,-1.18
2017-12-01T23:36:54.766Z,-1.12
2017-12-01T23:39:22.304Z,-1.08
2017-12-01T23:41:49.789Z,-1.14
2017-12-01T23:44:17.281Z,-1.15
2017-12-01T23:46:44.768Z,-1.13
2017-12-01T23:49:12.228Z,-1.03
2017-12-01T23:51:39.708Z,-0.95
2017-12-01T23:54:07.177Z,-1.13
2017-12-01T23:56:34.664Z,-0.90
2017-12-01T23:59:02.211Z,-1.10
